sensor_id;sensor_type;location;lat;lon;timestamp;pressure;altitude;pressure_sealevel;temperature;humidity
5284;BME280;15377;48.540;9.268;2022-07-23T00:02:23;97453.34;;;20.21;100.00
5284;BME280;15377;48.540;9.268;2022-07-23T00:04:49;97433.25;;;20.22;100.00
5284;BME280;15377;48.540;9.268;2022-07-23T00:07:14;97397.31;;;20.13;100.00
5284;BME280;15377;48.540;9.268;2022-07-23T00:09:39;97374.97;;;20.13;100.00
5284;BME280;15377;48.540;9.268;2022-07-23T00:12:05;97406.81;;;20.23;100.00
5284;BME280;15377;48.540;9.268;2022-07-23T00:14:31;97437.31;;;20.21;100.00
5284;BME280;15377;48.540;9.268;2022-07-23T00:16:56;97424.84;;;20.09;100.00
5284;BME280;15377;48.540;9.268;2022-07-23T00:19:21;97423.66;;;20.05;100.00
5284;BME280;15377;48.540;9.268;2022-07-23T00:21:47;97413.28;;;20.00;100.00
5284;BME280;15377;48.540;9.268;2022-07-23T00:24:12;97373.19;;;19.97;100.00
5284;BME280;15377;48.540;9.268;2022-07-23T00:26:37;97355.69;;;19.97;100.00
5284;BME280;15377;48.540;9.268;2022-07-23T00:29:03;97376.09;;;19.92;100.00
5284;BME280;15377;48.540;9.268;2022-07-23T00:31:28;97387.25;;;19.92;100.00
5284;BME280;15377;48.540;9.268;2022-07-23T00:33:54;97407.78;;;19.94;100.00
5284;BME280;15377;48.540;9.268;2022-07-23T00:36:23;97410.47;;;20.00;100.00
5284;BME280;15377;48.540;9.268;2022-07-23T00:38:49;97408.66;;;20.02;100.00
5284;BME280;15377;48.540;9.268;2022-07-23T00:41:15;97410.75;;;20.15;100.00
5284;BME280;15377;48.540;9.268;2022-07-23T00:43:41;97413.56;;;20.28;100.00
5284;BME280;15377;48.540;9.268;2022-07-23T00:46:07;97435.06;;;20.33;100.00
5284;BME280;15377;48.540;9.268;2022-07-23T00:48:33;97424.84;;;20.35;100.00
5284;BME280;15377;48.540;9.268;2022-07-23T00:50:58;97437.22;;;20.40;100.00
5284;BME280;15377;48.540;9.268;2022-07-23T00:53:24;97420.03;;;20.36;100.00
5284;BME280;15377;48.540;9.268;2022-07-23T00:55:49;97437.22;;;20.53;100.00
5284;BME280;15377;48.540;9.268;2022-07-23T00:58:16;97438.09;;;20.48;100.00
5284;BME280;15377;48.540;9.268;2022-07-23T01:00:41;97438.53;;;20.52;100.00
5284;BME280;15377;48.540;9.268;2022-07-23T01:03:06;97433.56;;;20.45;100.00
5284;BME280;15377;48.540;9.268;2022-07-23T01:05:32;97431.44;;;20.51;100.00
5284;BME280;15377;48.540;9.268;2022-07-23T01:07:58;97439.91;;;20.58;100.00
5284;BME280;15377;48.540;9.268;2022-07-23T01:10:24;97435.09;;;20.59;100.00
5284;BME280;15377;48.540;9.268;2022-07-23T01:12:56;97407.00;;;20.64;100.00
5284;BME280;15377;48.540;9.268;2022-07-23T01:15:22;97428.53;;;20.56;100.00
5284;BME280;15377;48.540;9.268;2022-07-23T01:17:47;97408.19;;;20.69;100.00
5284;BME280;15377;48.540;9.268;2022-07-23T01:20:13;97380.03;;;20.54;100.00
5284;BME280;15377;48.540;9.268;2022-07-23T01:22:38;97409.16;;;20.58;100.00
5284;BME280;15377;48.540;9.268;2022-07-23T01:25:04;97391.84;;;20.47;100.00
5284;BME280;15377;48.540;9.268;2022-07-23T01:27:30;97387.75;;;20.48;100.00
5284;BME280;15377;48.540;9.268;2022-07-23T01:29:57;97360.25;;;20.39;100.00
5284;BME280;15377;48.540;9.268;2022-07-23T01:32:22;97375.06;;;20.47;100.00
5284;BME280;15377;48.540;9.268;2022-07-23T01:34:47;97357.25;;;20.50;100.00
5284;BME280;15377;48.540;9.268;2022-07-23T01:37:13;97338.94;;;20.49;100.00
5284;BME280;15377;48.540;9.268;2022-07-23T01:39:38;97322.16;;;20.49;100.00
5284;BME280;15377;48.540;9.268;2022-07-23T01:42:04;97295.63;;;20.42;100.00
5284;BME280;15377;48.540;9.268;2022-07-23T01:44:30;97295.44;;;20.40;100.00
5284;BME280;15377;48.540;9.268;2022-07-23T01:46:55;97298.28;;;20.48;100.00
5284;BME280;15377;48.540;9.268;2022-07-23T01:49:21;97306.69;;;20.48;100.00
5284;BME280;15377;48.540;9.268;2022-07-23T01:51:46;97330.78;;;20.51;100.00
5284;BME280;15377;48.540;9.268;2022-07-23T01:54:31;97341.53;;;20.47;100.00
5284;BME280;15377;48.540;9.268;2022-07-23T01:56:57;97339.91;;;20.51;100.00
5284;BME280;15377;48.540;9.268;2022-07-23T01:59:24;97332.50;;;20.41;100.00
5284;BME280;15377;48.540;9.268;2022-07-23T02:01:49;97328.97;;;20.40;100.00
5284;BME280;15377;48.540;9.268;2022-07-23T02:04:18;97341.00;;;20.35;100.00
5284;BME280;15377;48.540;9.268;2022-07-23T02:06:44;97351.78;;;20.31;100.00
5284;BME280;15377;48.540;9.268;2022-07-23T02:09:10;97344.69;;;20.30;100.00
5284;BME280;15377;48.540;9.268;2022-07-23T02:11:35;97340.25;;;20.35;100.00
5284;BME280;15377;48.540;9.268;2022-07-23T02:14:00;97355.75;;;20.36;100.00
5284;BME280;15377;48.540;9.268;2022-07-23T02:16:26;97344.56;;;20.23;100.00
5284;BME280;15377;48.540;9.268;2022-07-23T02:18:51;97363.91;;;20.21;100.00
5284;BME280;15377;48.540;9.268;2022-07-23T02:21:16;97379.28;;;20.27;100.00
5284;BME280;15377;48.540;9.268;2022-07-23T02:23:42;97415.63;;;20.40;100.00
5284;BME280;15377;48.540;9.268;2022-07-23T02:26:07;97436.16;;;20.43;100.00
5284;BME280;15377;48.540;9.268;2022-07-23T02:28:33;97445.53;;;20.45;100.00
5284;BME280;15377;48.540;9.268;2022-07-23T02:30:58;97445.28;;;20.43;100.00
5284;BME280;15377;48.540;9.268;2022-07-23T02:33:23;97465.63;;;20.44;100.00
5284;BME280;15377;48.540;9.268;2022-07-23T02:35:49;97478.31;;;20.45;100.00
5284;BME280;15377;48.540;9.268;2022-07-23T02:38:14;97472.94;;;20.47;100.00
5284;BME280;15377;48.540;9.268;2022-07-23T02:40:40;97463.66;;;20.39;100.00
5284;BME280;15377;48.540;9.268;2022-07-23T02:43:05;97454.22;;;20.42;100.00
5284;BME280;15377;48.540;9.268;2022-07-23T02:45:30;97469.16;;;20.44;100.00
5284;BME280;15377;48.540;9.268;2022-07-23T02:47:56;97458.84;;;20.39;100.00
5284;BME280;15377;48.540;9.268;2022-07-23T02:50:21;97462.78;;;20.31;100.00
5284;BME280;15377;48.540;9.268;2022-07-23T02:52:47;97459.66;;;20.21;100.00
5284;BME280;15377;48.540;9.268;2022-07-23T02:55:12;97471.19;;;20.18;100.00
5284;BME280;15377;48.540;9.268;2022-07-23T02:57:38;97462.88;;;20.12;100.00
5284;BME280;15377;48.540;9.268;2022-07-23T03:00:05;97455.88;;;20.06;100.00
5284;BME280;15377;48.540;9.268;2022-07-23T03:02:31;97439.53;;;20.10;100.00
5284;BME280;15377;48.540;9.268;2022-07-23T03:04:56;97447.59;;;20.13;100.00
5284;BME280;15377;48.540;9.268;2022-07-23T03:07:21;97468.78;;;20.09;100.00
5284;BME280;15377;48.540;9.268;2022-07-23T03:09:47;97478.81;;;19.99;100.00
5284;BME280;15377;48.540;9.268;2022-07-23T03:12:12;97459.00;;;19.84;100.00
5284;BME280;15377;48.540;9.268;2022-07-23T03:14:38;97478.03;;;19.85;100.00
5284;BME280;15377;48.540;9.268;2022-07-23T03:17:03;97481.13;;;19.82;100.00
5284;BME280;15377;48.540;9.268;2022-07-23T03:19:28;97487.25;;;19.80;100.00
5284;BME280;15377;48.540;9.268;2022-07-23T03:21:54;97479.41;;;19.79;100.00
5284;BME280;15377;48.540;9.268;2022-07-23T03:24:19;97479.00;;;19.88;100.00
5284;BME280;15377;48.540;9.268;2022-07-23T03:26:45;97478.47;;;19.89;100.00
5284;BME280;15377;48.540;9.268;2022-07-23T03:29:10;97478.56;;;19.84;100.00
5284;BME280;15377;48.540;9.268;2022-07-23T03:31:36;97476.16;;;19.75;100.00
5284;BME280;15377;48.540;9.268;2022-07-23T03:34:01;97463.88;;;19.65;100.00
5284;BME280;15377;48.540;9.268;2022-07-23T03:36:27;97477.00;;;19.70;100.00
5284;BME280;15377;48.540;9.268;2022-07-23T03:38:52;97464.59;;;19.52;100.00
5284;BME280;15377;48.540;9.268;2022-07-23T03:41:19;97440.19;;;19.53;100.00
5284;BME280;15377;48.540;9.268;2022-07-23T03:43:45;97420.22;;;19.49;100.00
5284;BME280;15377;48.540;9.268;2022-07-23T03:46:11;97449.25;;;19.59;100.00
5284;BME280;15377;48.540;9.268;2022-07-23T03:48:36;97453.34;;;19.58;100.00
5284;BME280;15377;48.540;9.268;2022-07-23T03:51:01;97468.19;;;19.66;100.00
5284;BME280;15377;48.540;9.268;2022-07-23T03:53:27;97468.69;;;19.64;100.00
5284;BME280;15377;48.540;9.268;2022-07-23T03:55:53;97467.38;;;19.52;100.00
5284;BME280;15377;48.540;9.268;2022-07-23T03:58:18;97455.31;;;19.26;100.00
5284;BME280;15377;48.540;9.268;2022-07-23T04:00:44;97471.00;;;19.29;100.00
5284;BME280;15377;48.540;9.268;2022-07-23T04:03:09;97467.72;;;19.06;100.00
5284;BME280;15377;48.540;9.268;2022-07-23T04:05:34;97477.00;;;18.96;100.00
5284;BME280;15377;48.540;9.268;2022-07-23T04:08:00;97491.78;;;19.09;100.00
5284;BME280;15377;48.540;9.268;2022-07-23T04:10:25;97482.88;;;19.11;100.00
5284;BME280;15377;48.540;9.268;2022-07-23T04:12:50;97491.47;;;19.13;100.00
5284;BME280;15377;48.540;9.268;2022-07-23T04:15:16;97465.25;;;19.03;100.00
5284;BME280;15377;48.540;9.268;2022-07-23T04:17:41;97492.47;;;19.15;100.00
5284;BME280;15377;48.540;9.268;2022-07-23T04:20:07;97491.38;;;19.24;100.00
5284;BME280;15377;48.540;9.268;2022-07-23T04:22:32;97475.53;;;19.32;100.00
5284;BME280;15377;48.540;9.268;2022-07-23T04:24:58;97481.94;;;19.45;100.00
5284;BME280;15377;48.540;9.268;2022-07-23T04:27:23;97483.13;;;19.50;100.00
5284;BME280;15377;48.540;9.268;2022-07-23T04:29:49;97484.25;;;19.41;100.00
5284;BME280;15377;48.540;9.268;2022-07-23T04:32:14;97493.72;;;19.38;100.00
5284;BME280;15377;48.540;9.268;2022-07-23T04:34:40;97493.19;;;19.40;100.00
5284;BME280;15377;48.540;9.268;2022-07-23T04:37:05;97489.53;;;19.45;100.00
5284;BME280;15377;48.540;9.268;2022-07-23T04:39:30;97491.53;;;19.50;100.00
5284;BME280;15377;48.540;9.268;2022-07-23T04:41:56;97488.56;;;19.42;100.00
5284;BME280;15377;48.540;9.268;2022-07-23T04:44:21;97497.69;;;19.43;100.00
5284;BME280;15377;48.540;9.268;2022-07-23T04:46:47;97508.09;;;19.42;100.00
5284;BME280;15377;48.540;9.268;2022-07-23T04:49:12;97491.00;;;19.33;100.00
5284;BME280;15377;48.540;9.268;2022-07-23T04:51:38;97484.25;;;19.41;100.00
5284;BME280;15377;48.540;9.268;2022-07-23T04:54:03;97470.69;;;19.51;100.00
5284;BME280;15377;48.540;9.268;2022-07-23T04:56:28;97479.47;;;19.73;100.00
5284;BME280;15377;48.540;9.268;2022-07-23T04:58:54;97487.38;;;19.88;100.00
5284;BME280;15377;48.540;9.268;2022-07-23T05:01:19;97491.56;;;20.13;100.00
5284;BME280;15377;48.540;9.268;2022-07-23T05:03:44;97482.47;;;20.25;100.00
5284;BME280;15377;48.540;9.268;2022-07-23T05:06:10;97500.03;;;20.52;100.00
5284;BME280;15377;48.540;9.268;2022-07-23T05:08:35;97510.38;;;20.70;100.00
5284;BME280;15377;48.540;9.268;2022-07-23T05:11:01;97522.88;;;20.82;100.00
5284;BME280;15377;48.540;9.268;2022-07-23T05:13:26;97523.00;;;20.89;100.00
5284;BME280;15377;48.540;9.268;2022-07-23T05:15:51;97520.72;;;20.88;100.00
5284;BME280;15377;48.540;9.268;2022-07-23T05:18:17;97508.97;;;20.76;100.00
5284;BME280;15377;48.540;9.268;2022-07-23T05:20:42;97512.53;;;20.77;100.00
5284;BME280;15377;48.540;9.268;2022-07-23T05:23:08;97494.44;;;20.65;100.00
5284;BME280;15377;48.540;9.268;2022-07-23T05:25:33;97505.63;;;20.78;100.00
5284;BME280;15377;48.540;9.268;2022-07-23T05:27:58;97489.06;;;20.80;100.00
5284;BME280;15377;48.540;9.268;2022-07-23T05:30:24;97507.91;;;21.05;100.00
5284;BME280;15377;48.540;9.268;2022-07-23T05:32:49;97508.25;;;21.15;100.00
5284;BME280;15377;48.540;9.268;2022-07-23T05:35:14;97525.88;;;21.23;100.00
5284;BME280;15377;48.540;9.268;2022-07-23T05:37:40;97500.25;;;21.19;100.00
5284;BME280;15377;48.540;9.268;2022-07-23T05:40:07;97500.44;;;21.34;100.00
5284;BME280;15377;48.540;9.268;2022-07-23T05:42:35;97490.75;;;21.35;100.00
5284;BME280;15377;48.540;9.268;2022-07-23T05:45:00;97505.06;;;21.44;100.00
5284;BME280;15377;48.540;9.268;2022-07-23T05:47:26;97515.53;;;21.44;100.00
5284;BME280;15377;48.540;9.268;2022-07-23T05:49:51;97513.66;;;21.46;100.00
5284;BME280;15377;48.540;9.268;2022-07-23T05:52:17;97520.69;;;21.40;100.00
5284;BME280;15377;48.540;9.268;2022-07-23T05:54:42;97523.28;;;21.38;100.00
5284;BME280;15377;48.540;9.268;2022-07-23T05:57:07;97502.38;;;21.39;100.00
5284;BME280;15377;48.540;9.268;2022-07-23T05:59:33;97506.66;;;21.53;100.00
5284;BME280;15377;48.540;9.268;2022-07-23T06:01:59;97520.63;;;21.79;100.00
5284;BME280;15377;48.540;9.268;2022-07-23T06:04:24;97527.41;;;22.04;100.00
5284;BME280;15377;48.540;9.268;2022-07-23T06:06:49;97521.56;;;22.15;100.00
5284;BME280;15377;48.540;9.268;2022-07-23T06:09:15;97528.78;;;22.31;100.00
5284;BME280;15377;48.540;9.268;2022-07-23T06:11:41;97528.25;;;22.53;100.00
5284;BME280;15377;48.540;9.268;2022-07-23T06:14:06;97528.72;;;22.64;100.00
5284;BME280;15377;48.540;9.268;2022-07-23T06:16:32;97533.00;;;22.86;100.00
5284;BME280;15377;48.540;9.268;2022-07-23T06:18:57;97521.78;;;22.86;100.00
5284;BME280;15377;48.540;9.268;2022-07-23T06:21:22;97534.72;;;22.96;100.00
5284;BME280;15377;48.540;9.268;2022-07-23T06:23:48;97536.38;;;22.92;100.00
5284;BME280;15377;48.540;9.268;2022-07-23T06:26:13;97532.72;;;23.04;100.00
5284;BME280;15377;48.540;9.268;2022-07-23T06:28:39;97534.91;;;23.18;100.00
5284;BME280;15377;48.540;9.268;2022-07-23T06:31:04;97546.41;;;23.35;100.00
5284;BME280;15377;48.540;9.268;2022-07-23T06:33:30;97546.31;;;23.48;100.00
5284;BME280;15377;48.540;9.268;2022-07-23T06:35:55;97544.06;;;23.54;100.00
5284;BME280;15377;48.540;9.268;2022-07-23T06:38:20;97548.19;;;23.53;100.00
5284;BME280;15377;48.540;9.268;2022-07-23T06:40:46;97569.03;;;23.65;100.00
5284;BME280;15377;48.540;9.268;2022-07-23T06:43:11;97567.56;;;23.79;100.00
5284;BME280;15377;48.540;9.268;2022-07-23T06:45:37;97573.31;;;24.02;100.00
5284;BME280;15377;48.540;9.268;2022-07-23T06:48:02;97571.47;;;24.19;100.00
5284;BME280;15377;48.540;9.268;2022-07-23T06:50:28;97573.38;;;24.39;100.00
5284;BME280;15377;48.540;9.268;2022-07-23T06:52:54;97570.41;;;24.60;100.00
5284;BME280;15377;48.540;9.268;2022-07-23T06:55:19;97581.31;;;24.71;100.00
5284;BME280;15377;48.540;9.268;2022-07-23T06:57:45;97573.78;;;24.58;100.00
5284;BME280;15377;48.540;9.268;2022-07-23T07:00:10;97577.16;;;24.64;100.00
5284;BME280;15377;48.540;9.268;2022-07-23T07:02:36;97596.69;;;24.77;100.00
5284;BME280;15377;48.540;9.268;2022-07-23T07:05:02;97597.81;;;24.82;100.00
5284;BME280;15377;48.540;9.268;2022-07-23T07:07:27;97610.22;;;24.86;100.00
5284;BME280;15377;48.540;9.268;2022-07-23T07:09:53;97602.69;;;24.81;100.00
5284;BME280;15377;48.540;9.268;2022-07-23T07:12:18;97612.28;;;25.08;100.00
5284;BME280;15377;48.540;9.268;2022-07-23T07:14:44;97608.69;;;25.15;100.00
5284;BME280;15377;48.540;9.268;2022-07-23T07:17:09;97612.84;;;25.29;100.00
5284;BME280;15377;48.540;9.268;2022-07-23T07:19:36;97614.66;;;25.49;100.00
5284;BME280;15377;48.540;9.268;2022-07-23T07:22:02;97618.59;;;25.61;100.00
5284;BME280;15377;48.540;9.268;2022-07-23T07:24:27;97614.94;;;25.83;100.00
5284;BME280;15377;48.540;9.268;2022-07-23T07:26:52;97604.94;;;25.97;100.00
5284;BME280;15377;48.540;9.268;2022-07-23T07:29:18;97609.66;;;25.95;100.00
5284;BME280;15377;48.540;9.268;2022-07-23T07:31:43;97608.88;;;26.02;100.00
5284;BME280;15377;48.540;9.268;2022-07-23T07:34:09;97601.34;;;26.04;100.00
5284;BME280;15377;48.540;9.268;2022-07-23T07:36:34;97596.88;;;26.26;100.00
5284;BME280;15377;48.540;9.268;2022-07-23T07:39:03;97613.09;;;26.50;100.00
5284;BME280;15377;48.540;9.268;2022-07-23T07:41:29;97613.88;;;26.50;100.00
5284;BME280;15377;48.540;9.268;2022-07-23T07:43:54;97618.66;;;26.72;100.00
5284;BME280;15377;48.540;9.268;2022-07-23T07:46:20;97624.16;;;26.63;100.00
5284;BME280;15377;48.540;9.268;2022-07-23T07:48:45;97617.19;;;26.64;100.00
5284;BME280;15377;48.540;9.268;2022-07-23T07:51:10;97627.78;;;26.56;100.00
5284;BME280;15377;48.540;9.268;2022-07-23T07:53:36;97638.69;;;26.59;100.00
5284;BME280;15377;48.540;9.268;2022-07-23T07:56:01;97632.69;;;26.48;100.00
5284;BME280;15377;48.540;9.268;2022-07-23T07:58:26;97638.75;;;26.52;100.00
5284;BME280;15377;48.540;9.268;2022-07-23T08:00:52;97644.38;;;26.44;100.00
5284;BME280;15377;48.540;9.268;2022-07-23T08:03:17;97634.97;;;26.49;100.00
5284;BME280;15377;48.540;9.268;2022-07-23T08:05:43;97646.47;;;26.44;100.00
5284;BME280;15377;48.540;9.268;2022-07-23T08:08:08;97650.19;;;26.46;100.00
5284;BME280;15377;48.540;9.268;2022-07-23T08:10:39;97650.41;;;26.48;100.00
5284;BME280;15377;48.540;9.268;2022-07-23T08:13:05;97654.53;;;26.55;100.00
5284;BME280;15377;48.540;9.268;2022-07-23T08:15:30;97646.41;;;26.19;100.00
5284;BME280;15377;48.540;9.268;2022-07-23T08:17:56;97663.19;;;26.10;100.00
5284;BME280;15377;48.540;9.268;2022-07-23T08:20:23;97662.28;;;26.39;100.00
5284;BME280;15377;48.540;9.268;2022-07-23T08:22:52;97665.81;;;26.47;100.00
5284;BME280;15377;48.540;9.268;2022-07-23T08:27:54;97661.84;;;26.58;100.00
5284;BME280;15377;48.540;9.268;2022-07-23T08:30:20;97655.06;;;26.61;100.00
5284;BME280;15377;48.540;9.268;2022-07-23T08:37:57;97652.53;;;26.72;100.00
5284;BME280;15377;48.540;9.268;2022-07-23T08:40:25;97641.56;;;26.76;100.00
5284;BME280;15377;48.540;9.268;2022-07-23T08:42:51;97642.63;;;26.88;100.00
5284;BME280;15377;48.540;9.268;2022-07-23T08:45:21;97651.25;;;26.90;100.00
5284;BME280;15377;48.540;9.268;2022-07-23T08:47:52;97649.69;;;26.97;100.00
5284;BME280;15377;48.540;9.268;2022-07-23T08:50:18;97666.03;;;27.30;100.00
5284;BME280;15377;48.540;9.268;2022-07-23T08:52:44;97652.94;;;27.42;100.00
5284;BME280;15377;48.540;9.268;2022-07-23T08:55:10;97670.06;;;27.44;100.00
5284;BME280;15377;48.540;9.268;2022-07-23T08:57:36;97662.09;;;27.50;100.00
5284;BME280;15377;48.540;9.268;2022-07-23T09:00:04;97671.28;;;27.75;100.00
5284;BME280;15377;48.540;9.268;2022-07-23T09:02:29;97663.50;;;27.58;100.00
5284;BME280;15377;48.540;9.268;2022-07-23T09:04:54;97671.28;;;27.34;100.00
5284;BME280;15377;48.540;9.268;2022-07-23T09:07:20;97648.31;;;27.30;100.00
5284;BME280;15377;48.540;9.268;2022-07-23T09:09:45;97664.13;;;27.33;100.00
5284;BME280;15377;48.540;9.268;2022-07-23T09:12:11;97666.72;;;27.38;100.00
5284;BME280;15377;48.540;9.268;2022-07-23T09:14:41;97658.19;;;27.21;100.00
5284;BME280;15377;48.540;9.268;2022-07-23T09:17:17;97646.53;;;27.17;100.00
5284;BME280;15377;48.540;9.268;2022-07-23T09:19:44;97642.06;;;27.14;100.00
5284;BME280;15377;48.540;9.268;2022-07-23T09:22:25;97642.50;;;27.03;100.00
5284;BME280;15377;48.540;9.268;2022-07-23T09:25:22;97644.03;;;26.97;100.00
5284;BME280;15377;48.540;9.268;2022-07-23T09:27:58;97633.59;;;27.31;100.00
5284;BME280;15377;48.540;9.268;2022-07-23T09:30:29;97646.53;;;27.58;100.00
5284;BME280;15377;48.540;9.268;2022-07-23T09:38:18;97651.84;;;28.22;100.00
5284;BME280;15377;48.540;9.268;2022-07-23T09:40:44;97659.25;;;28.18;100.00
5284;BME280;15377;48.540;9.268;2022-07-23T09:43:11;97652.06;;;28.34;100.00
5284;BME280;15377;48.540;9.268;2022-07-23T09:45:36;97646.28;;;28.58;100.00
5284;BME280;15377;48.540;9.268;2022-07-23T09:48:15;97650.28;;;28.82;100.00
5284;BME280;15377;48.540;9.268;2022-07-23T09:50:44;97651.56;;;28.98;100.00
5284;BME280;15377;48.540;9.268;2022-07-23T09:53:11;97649.53;;;29.08;100.00
5284;BME280;15377;48.540;9.268;2022-07-23T09:55:48;97641.91;;;29.10;100.00
5284;BME280;15377;48.540;9.268;2022-07-23T09:58:14;97650.25;;;29.54;100.00
5284;BME280;15377;48.540;9.268;2022-07-23T10:00:42;97640.41;;;29.00;100.00
5284;BME280;15377;48.540;9.268;2022-07-23T10:03:10;97648.69;;;29.34;100.00
5284;BME280;15377;48.540;9.268;2022-07-23T10:05:37;97647.59;;;29.56;100.00
5284;BME280;15377;48.540;9.268;2022-07-23T10:08:03;97643.41;;;29.76;100.00
5284;BME280;15377;48.540;9.268;2022-07-23T10:10:28;97649.69;;;29.65;100.00
5284;BME280;15377;48.540;9.268;2022-07-23T10:12:56;97650.75;;;29.79;100.00
5284;BME280;15377;48.540;9.268;2022-07-23T10:15:33;97643.28;;;29.83;92.99
5284;BME280;15377;48.540;9.268;2022-07-23T10:17:59;97651.00;;;30.49;93.03
5284;BME280;15377;48.540;9.268;2022-07-23T10:20:25;97643.34;;;30.71;96.03
5284;BME280;15377;48.540;9.268;2022-07-23T10:23:02;97636.34;;;30.62;93.56
5284;BME280;15377;48.540;9.268;2022-07-23T10:25:49;97636.28;;;30.13;90.90
5284;BME280;15377;48.540;9.268;2022-07-23T10:28:46;97630.59;;;30.13;94.72
5284;BME280;15377;48.540;9.268;2022-07-23T10:31:35;97652.66;;;30.62;89.49
5284;BME280;15377;48.540;9.268;2022-07-23T10:34:12;97649.69;;;31.30;89.76
5284;BME280;15377;48.540;9.268;2022-07-23T10:36:47;97638.94;;;31.29;85.92
5284;BME280;15377;48.540;9.268;2022-07-23T10:39:27;97642.47;;;31.39;87.42
5284;BME280;15377;48.540;9.268;2022-07-23T10:42:08;97635.41;;;31.40;86.49
5284;BME280;15377;48.540;9.268;2022-07-23T10:44:47;97641.91;;;31.31;85.95
5284;BME280;15377;48.540;9.268;2022-07-23T10:47:25;97635.56;;;31.42;84.95
5284;BME280;15377;48.540;9.268;2022-07-23T10:50:22;97652.44;;;31.49;85.57
5284;BME280;15377;48.540;9.268;2022-07-23T10:58:01;97636.34;;;32.37;82.88
5284;BME280;15377;48.540;9.268;2022-07-23T11:00:31;97636.59;;;32.41;77.47
5284;BME280;15377;48.540;9.268;2022-07-23T11:03:01;97630.91;;;32.20;75.75
5284;BME280;15377;48.540;9.268;2022-07-23T11:05:43;97638.56;;;31.44;84.72
5284;BME280;15377;48.540;9.268;2022-07-23T11:08:10;97641.53;;;31.88;81.05
5284;BME280;15377;48.540;9.268;2022-07-23T11:10:38;97632.31;;;32.63;78.22
5284;BME280;15377;48.540;9.268;2022-07-23T11:31:58;97629.94;;;36.21;56.89
5284;BME280;15377;48.540;9.268;2022-07-23T11:34:30;97636.94;;;35.76;55.93
5284;BME280;15377;48.540;9.268;2022-07-23T11:36:56;97639.97;;;35.66;59.94
5284;BME280;15377;48.540;9.268;2022-07-23T11:39:25;97644.84;;;35.10;57.98
5284;BME280;15377;48.540;9.268;2022-07-23T11:41:55;97641.59;;;33.90;57.96
5284;BME280;15377;48.540;9.268;2022-07-23T11:44:27;97631.00;;;33.56;64.37
5284;BME280;15377;48.540;9.268;2022-07-23T11:47:08;97638.66;;;34.13;63.58
5284;BME280;15377;48.540;9.268;2022-07-23T11:49:34;97641.31;;;34.84;68.67
5284;BME280;15377;48.540;9.268;2022-07-23T11:52:14;97629.94;;;35.38;59.28
5284;BME280;15377;48.540;9.268;2022-07-23T11:54:52;97628.69;;;36.40;56.83
5284;BME280;15377;48.540;9.268;2022-07-23T11:57:19;97615.09;;;36.11;56.62
5284;BME280;15377;48.540;9.268;2022-07-23T11:59:47;97608.00;;;36.57;56.54
5284;BME280;15377;48.540;9.268;2022-07-23T12:02:14;97620.78;;;36.54;53.47
5284;BME280;15377;48.540;9.268;2022-07-23T12:04:42;97608.88;;;37.36;53.41
5284;BME280;15377;48.540;9.268;2022-07-23T12:07:33;97608.44;;;38.08;51.63
5284;BME280;15377;48.540;9.268;2022-07-23T12:10:02;97596.50;;;38.68;47.05
5284;BME280;15377;48.540;9.268;2022-07-23T12:12:38;97596.28;;;38.44;45.94
5284;BME280;15377;48.540;9.268;2022-07-23T12:15:05;97590.66;;;37.96;47.43
5284;BME280;15377;48.540;9.268;2022-07-23T12:17:33;97598.25;;;38.05;45.82
5284;BME280;15377;48.540;9.268;2022-07-23T12:19:59;97606.78;;;38.20;45.13
5284;BME280;15377;48.540;9.268;2022-07-23T12:22:27;97611.56;;;38.14;44.02
5284;BME280;15377;48.540;9.268;2022-07-23T12:25:07;97604.00;;;38.05;46.09
5284;BME280;15377;48.540;9.268;2022-07-23T12:27:34;97592.88;;;38.67;45.97
5284;BME280;15377;48.540;9.268;2022-07-23T12:30:22;97598.03;;;38.71;44.05
5284;BME280;15377;48.540;9.268;2022-07-23T12:32:49;97604.31;;;37.80;44.05
5284;BME280;15377;48.540;9.268;2022-07-23T12:35:16;97598.53;;;35.81;47.21
5284;BME280;15377;48.540;9.268;2022-07-23T12:37:43;97600.50;;;34.20;50.04
5284;BME280;15377;48.540;9.268;2022-07-23T12:42:45;97607.78;;;33.50;58.47
5284;BME280;15377;48.540;9.268;2022-07-23T12:45:11;97598.06;;;33.78;55.72
5284;BME280;15377;48.540;9.268;2022-07-23T12:47:59;97613.47;;;34.98;50.23
5284;BME280;15377;48.540;9.268;2022-07-23T12:50:42;97601.09;;;36.17;47.23
5284;BME280;15377;48.540;9.268;2022-07-23T12:53:12;97594.75;;;36.94;47.87
5284;BME280;15377;48.540;9.268;2022-07-23T12:55:40;97596.31;;;36.37;46.78
5284;BME280;15377;48.540;9.268;2022-07-23T12:58:08;97597.56;;;36.19;47.81
5284;BME280;15377;48.540;9.268;2022-07-23T13:01:03;97603.72;;;36.71;44.38
5284;BME280;15377;48.540;9.268;2022-07-23T13:05:54;97596.53;;;36.57;44.96
5284;BME280;15377;48.540;9.268;2022-07-23T13:08:20;97605.34;;;36.16;45.24
5284;BME280;15377;48.540;9.268;2022-07-23T13:10:46;97612.22;;;35.55;45.63
5284;BME280;15377;48.540;9.268;2022-07-23T13:13:20;97606.13;;;34.95;45.03
5284;BME280;15377;48.540;9.268;2022-07-23T13:15:46;97591.00;;;35.74;47.71
5284;BME280;15377;48.540;9.268;2022-07-23T13:18:12;97594.41;;;35.70;44.32
5284;BME280;15377;48.540;9.268;2022-07-23T13:20:37;97606.13;;;36.32;45.30
5284;BME280;15377;48.540;9.268;2022-07-23T13:23:07;97617.19;;;36.24;44.25
5284;BME280;15377;48.540;9.268;2022-07-23T13:25:33;97610.44;;;36.62;43.66
5284;BME280;15377;48.540;9.268;2022-07-23T13:27:58;97608.59;;;36.24;42.19
5284;BME280;15377;48.540;9.268;2022-07-23T13:30:23;97619.19;;;34.98;46.12
5284;BME280;15377;48.540;9.268;2022-07-23T13:32:49;97615.50;;;33.36;49.79
5284;BME280;15377;48.540;9.268;2022-07-23T13:35:14;97624.25;;;32.60;51.71
5284;BME280;15377;48.540;9.268;2022-07-23T13:37:40;97630.28;;;31.90;54.91
5284;BME280;15377;48.540;9.268;2022-07-23T13:40:06;97621.31;;;32.04;54.91
5284;BME280;15377;48.540;9.268;2022-07-23T13:42:32;97611.41;;;31.73;55.89
5284;BME280;15377;48.540;9.268;2022-07-23T13:44:57;97621.78;;;32.22;54.44
5284;BME280;15377;48.540;9.268;2022-07-23T13:47:23;97618.19;;;32.21;54.86